TimeCST,TemperatureF,Dew PointF,Humidity,Sea Level PressureIn,VisibilityMPH,Wind Direction,Wind SpeedMPH,Gust SpeedMPH,PrecipitationIn,Events,Conditions,WindDirDegrees,DateUTC
12:53 AM,30.9,19.9,64,29.99,10.0,West,12.7,-,N/A,,Overcast,280,2013-01-31 06:53:00
1:53 AM,30.9,19.9,64,29.98,10.0,WNW,10.4,-,N/A,,Overcast,290,2013-01-31 07:53:00
2:53 AM,30.9,21.0,67,29.99,10.0,West,15.0,-,N/A,,Overcast,270,2013-01-31 08:53:00
3:53 AM,30.9,19.9,64,30.00,10.0,West,13.8,-,N/A,,Overcast,280,2013-01-31 09:53:00
4:53 AM,30.0,19.9,66,30.02,10.0,WNW,12.7,-,N/A,,Overcast,290,2013-01-31 10:53:00
5:53 AM,28.9,21.0,72,30.03,10.0,West,5.8,-,N/A,,Clear,270,2013-01-31 11:53:00
6:53 AM,30.0,21.9,72,30.05,10.0,WSW,8.1,-,N/A,,Overcast,250,2013-01-31 12:53:00
7:53 AM,30.9,21.9,69,30.07,10.0,WSW,11.5,-,N/A,,Overcast,240,2013-01-31 13:53:00
8:53 AM,30.9,21.9,69,30.09,10.0,SW,11.5,-,N/A,,Overcast,230,2013-01-31 14:53:00
9:53 AM,32.0,21.9,66,30.12,10.0,WSW,12.7,-,N/A,,Overcast,240,2013-01-31 15:53:00
10:53 AM,34.0,24.1,67,30.12,10.0,WSW,13.8,-,N/A,,Partly Cloudy,250,2013-01-31 16:53:00
11:53 AM,37.0,25.0,62,30.09,10.0,SW,12.7,-,N/A,,Clear,230,2013-01-31 17:53:00
12:53 PM,39.0,26.1,60,30.06,10.0,SW,16.1,19.6,N/A,,Clear,230,2013-01-31 18:53:00
2:53 PM,39.9,27.0,60,30.04,10.0,SW,12.7,-,N/A,,Overcast,230,2013-01-31 20:53:00
3:53 PM,39.9,28.0,63,30.07,10.0,WNW,15.0,21.9,N/A,,Overcast,290,2013-01-31 21:53:00
4:23 PM,37.4,30.2,75,30.08,10.0,WNW,19.6,25.3,0.00,,Overcast,290,2013-01-31 22:23:00
4:53 PM,35.1,32.0,89,30.10,5.0,WNW,13.8,-,0.00,Snow,Light Snow,300,2013-01-31 22:53:00
5:08 PM,33.8,32.0,93,30.09,4.0,WNW,12.7,-,0.00,Snow,Light Snow,290,2013-01-31 23:08:00
5:22 PM,35.6,32.0,87,30.10,9.0,WNW,18.4,23.0,0.00,,Overcast,290,2013-01-31 23:22:00
5:31 PM,33.8,28.4,81,30.11,2.5,NW,19.6,-,0.00,Snow,Light Snow,320,2013-01-31 23:31:00
5:36 PM,32.0,28.4,87,30.11,3.0,NW,17.3,25.3,0.00,Snow,Light Snow,320,2013-01-31 23:36:00
5:48 PM,32.0,28.4,87,30.12,2.5,NW,15.0,-,0.00,Snow,Light Snow,310,2013-01-31 23:48:00
5:53 PM,32.0,28.9,88,30.12,4.0,WNW,11.5,-,0.00,Snow,Light Snow,300,2013-01-31 23:53:00
6:05 PM,32.0,28.4,87,30.12,10.0,WNW,11.5,-,0.00,,Overcast,300,2013-02-01 00:05:00
6:53 PM,32.0,21.9,66,30.17,10.0,WNW,27.6,32.2,0.00,,Scattered Clouds,300,2013-02-01 00:53:00
7:53 PM,28.4,15.8,59,30.21,10.0,NW,17.3,29.9,N/A,,Partly Cloudy,320,2013-02-01 01:53:00
8:53 PM,26.1,10.0,51,30.27,10.0,NNW,18.4,26.5,N/A,,Clear,330,2013-02-01 02:53:00
9:53 PM,23.0,7.0,50,30.32,10.0,NW,17.3,27.6,N/A,,Clear,310,2013-02-01 03:53:00
10:53 PM,21.0,8.1,57,30.35,10.0,NW,16.1,-,N/A,,Clear,310,2013-02-01 04:53:00
11:53 PM,19.0,6.1,57,30.39,10.0,NW,17.3,24.2,N/A,,Clear,310,2013-02-01 05:53:00